Tamanrasset, Algeria
Current Conditions -  °F | °C
As of 2:00 AM on Saturday 29 Nov 2014 (Local Time) from DAAT Reporting Station
Clear Clear  
Wind Chill: 57°   Ceiling: Unl
Heat Index: 57°   Visibility: 4mi
Dew Point: 28°   Wind: 8mph
Humidity: 33%   Direction: 110°ESE
Pressure: 30.15"   Gusts: NA
Location:  22.78°N, 5.52°E
Report Text: DAAT 290100Z 11007KT 7000 NSC 14/M02 Q1021
Loading
Personal Weather Stations






























Interactive Weather Map New forecast layout! Learn more

10-Day Weather Forecast

Advertisements
Track Severe Weather on mobile